M70 weather

Pocahontas Municipal Airport
Pocahontas, Arkansas, United States

Public forecast

Using degrees Fahrenheit for public forecast. Weather courtesy of forecast.io.

Closest aviation weather report (METAR) to Pocahontas Municipal Airport

Closest report is Walnut Ridge Regional Airport, 7.4 nm (13.7 km) SSE. Retrieved 2020/08/05 02:56 UTC (1 hour ago):

KARG 050256Z AUTO 02004KT 7SM CLR 21/16 A3007 RMK AO2 SLP181 6//// T02060156 53013 PNO

Closest aviation forecast (TAF) to Pocahontas Municipal Airport

Closest forecast is Jonesboro Municipal Airport, 29.0 nm (53.7 km) SSE. Retrieved 2020-08-05 00:22 UTC (4 hours ago):

TAF KJBR 042320Z 0500/0524 04005KT P6SM FEW250 FM051200 03005KT P6SM SCT250 FM051700 05005KT P6SM BKN100